createdAt,value
2023-05-01T00:01:31.985Z,10.43
2023-05-01T00:04:02.211Z,10.57
2023-05-01T00:06:33.571Z,10.15
2023-05-01T00:09:03.657Z,10.45
2023-05-01T00:11:37.789Z,10.05
2023-05-01T00:14:07.972Z,9.88
2023-05-01T00:16:38.288Z,10.82
2023-05-01T00:19:08.403Z,10.43
2023-05-01T00:21:38.408Z,10.05
2023-05-01T00:24:09.139Z,10.23
2023-05-01T00:26:41.674Z,10.18
2023-05-01T00:29:11.817Z,9.82
2023-05-01T00:31:42.435Z,10.30
2023-05-01T00:34:12.815Z,10.50
2023-05-01T00:36:43.244Z,10.23
2023-05-01T00:39:13.213Z,10.05
2023-05-01T00:41:45.751Z,11.02
2023-05-01T00:44:16.834Z,11.52
2023-05-01T00:46:46.837Z,12.05
2023-05-01T00:49:17.680Z,12.52
2023-05-01T00:51:51.060Z,12.45
2023-05-01T00:54:21.188Z,12.52
2023-05-01T00:56:54.834Z,11.90
2023-05-01T00:59:24.904Z,12.45
2023-05-01T01:01:56.765Z,13.85
2023-05-01T01:04:28.871Z,14.35
2023-05-01T01:07:07.032Z,13.75
2023-05-01T01:09:55.984Z,12.65
2023-05-01T01:12:35.817Z,12.57
2023-05-01T01:15:18.285Z,14.50
2023-05-01T01:17:58.405Z,13.32
2023-05-01T01:20:39.936Z,11.68
2023-05-01T01:23:46.257Z,12.93
2023-05-01T01:26:36.482Z,11.63
2023-05-01T01:29:44.394Z,13.05
2023-05-01T01:32:43.354Z,12.65
2023-05-01T01:35:22.448Z,11.90
2023-05-01T01:38:00.428Z,12.35
2023-05-01T01:40:38.219Z,11.60
2023-05-01T01:43:10.755Z,12.32
2023-05-01T01:45:44.050Z,11.48
2023-05-01T01:48:18.890Z,11.52
2023-05-01T01:53:22.692Z,11.43
2023-05-01T01:55:54.899Z,11.18
2023-05-01T01:58:26.539Z,10.63
2023-05-01T02:00:58.261Z,9.75
2023-05-01T02:03:29.647Z,9.98
2023-05-01T02:06:04.003Z,10.23
2023-05-01T02:08:36.617Z,10.63
2023-05-01T02:11:08.171Z,11.15
2023-05-01T02:13:40.718Z,10.40
2023-05-01T02:16:11.472Z,9.30
2023-05-01T02:18:42.544Z,10.07
2023-05-01T02:21:16.380Z,9.10
2023-05-01T02:23:46.496Z,9.05
2023-05-01T02:26:19.793Z,9.65
2023-05-01T02:28:49.890Z,9.20
2023-05-01T02:31:19.877Z,10.20
2023-05-01T02:33:49.862Z,10.30
2023-05-01T02:36:22.393Z,10.68
2023-05-01T02:38:52.469Z,10.48
2023-05-01T02:41:25.230Z,10.23
2023-05-01T02:44:01.525Z,9.90
2023-05-01T02:46:34.172Z,9.48
2023-05-01T02:49:06.528Z,9.73
2023-05-01T02:51:40.243Z,9.50
2023-05-01T02:54:10.981Z,9.55
2023-05-01T02:56:41.130Z,9.93
2023-05-01T02:59:11.108Z,9.60
2023-05-01T03:01:41.094Z,9.93
2023-05-01T03:04:11.140Z,10.88
2023-05-01T03:06:44.706Z,9.38
2023-05-01T03:09:14.845Z,10.32
2023-05-01T03:11:44.774Z,9.90
2023-05-01T03:14:14.733Z,9.45
2023-05-01T03:16:44.780Z,9.15
2023-05-01T03:19:14.801Z,9.48
2023-05-01T03:21:47.387Z,10.15
2023-05-01T03:24:17.517Z,9.27
2023-05-01T03:26:47.483Z,9.90
2023-05-01T03:29:17.449Z,9.15
2023-05-01T03:31:47.471Z,9.57
2023-05-01T03:34:17.464Z,9.45
2023-05-01T03:36:49.981Z,9.80
2023-05-01T03:39:19.989Z,9.00
2023-05-01T03:41:49.948Z,9.75
2023-05-01T03:44:19.938Z,9.30
2023-05-01T03:46:49.901Z,9.32
2023-05-01T03:49:20.026Z,9.10
2023-05-01T03:51:52.708Z,10.02
2023-05-01T03:54:22.712Z,9.48
2023-05-01T03:56:52.721Z,9.32
2023-05-01T03:59:22.691Z,9.30
2023-05-01T04:01:53.004Z,8.73
2023-05-01T04:04:23.145Z,10.95
2023-05-01T04:06:55.719Z,9.05
2023-05-01T04:09:25.706Z,8.75
2023-05-01T04:11:55.700Z,8.45
2023-05-01T04:14:25.927Z,8.60
2023-05-01T04:16:56.512Z,8.07
2023-05-01T04:19:26.907Z,8.57
2023-05-01T04:21:59.476Z,8.70
2023-05-01T04:24:29.438Z,8.60
2023-05-01T04:26:59.468Z,8.02
2023-05-01T04:29:29.411Z,8.48
2023-05-01T04:31:59.470Z,8.60
2023-05-01T04:34:29.553Z,8.10
2023-05-01T04:37:03.278Z,8.13
2023-05-01T04:39:33.248Z,8.25
2023-05-01T04:42:03.715Z,8.57
2023-05-01T04:44:36.017Z,9.05
2023-05-01T04:47:06.479Z,10.18
2023-05-01T04:49:36.753Z,9.25
2023-05-01T04:52:09.364Z,7.82
2023-05-01T04:54:39.312Z,7.82
2023-05-01T04:57:09.273Z,7.75
2023-05-01T04:59:39.668Z,7.75
2023-05-01T05:02:09.640Z,7.30
2023-05-01T05:04:39.581Z,7.10
2023-05-01T05:07:12.115Z,7.18
2023-05-01T05:09:42.072Z,7.50
2023-05-01T05:12:12.039Z,6.95
2023-05-01T05:14:42.022Z,7.55
2023-05-01T05:17:12.464Z,7.20
2023-05-01T05:19:42.456Z,6.82
2023-05-01T05:22:15.831Z,7.40
2023-05-01T05:24:47.190Z,6.57
2023-05-01T05:27:17.186Z,7.78
2023-05-01T05:29:47.142Z,6.40
2023-05-01T05:32:17.216Z,6.90
2023-05-01T05:34:47.594Z,6.80
2023-05-01T05:37:20.153Z,6.90
2023-05-01T05:39:50.118Z,7.18
2023-05-01T05:42:20.378Z,6.60
2023-05-01T05:44:50.445Z,6.00
2023-05-01T05:47:20.442Z,6.90
2023-05-01T05:49:50.379Z,6.60
2023-05-01T05:52:22.910Z,7.07
2023-05-01T05:54:52.886Z,6.15
2023-05-01T05:57:22.862Z,6.90
2023-05-01T05:59:53.080Z,6.53
2023-05-01T06:02:23.201Z,6.25
2023-05-01T06:04:53.464Z,6.78
2023-05-01T06:07:26.257Z,6.40
2023-05-01T06:10:01.691Z,6.60
2023-05-01T06:12:31.991Z,6.50
2023-05-01T06:15:03.169Z,5.78
2023-05-01T06:17:33.225Z,6.65
2023-05-01T06:20:06.173Z,6.90
2023-05-01T06:22:38.745Z,5.97
2023-05-01T06:25:10.688Z,6.40
2023-05-01T06:27:40.731Z,6.40
2023-05-01T06:30:13.130Z,6.20
2023-05-01T06:32:43.861Z,6.47
2023-05-01T06:35:13.927Z,5.70
2023-05-01T06:37:46.471Z,6.88
2023-05-01T06:40:16.744Z,6.03
2023-05-01T06:42:46.724Z,5.65
2023-05-01T06:45:16.675Z,5.75
2023-05-01T06:47:46.727Z,5.28
2023-05-01T06:50:16.838Z,5.15
2023-05-01T06:52:49.476Z,5.35
2023-05-01T06:55:19.514Z,3.50
2023-05-01T06:57:49.478Z,3.65
2023-05-01T07:00:21.843Z,3.58
2023-05-01T07:02:51.955Z,3.45
2023-05-01T07:05:22.698Z,4.22
2023-05-01T07:08:01.125Z,3.72
2023-05-01T07:10:32.008Z,3.70
2023-05-01T07:13:03.637Z,3.75
2023-05-01T07:15:34.473Z,3.40
2023-05-01T07:18:06.267Z,3.70
2023-05-01T07:20:37.339Z,4.10
2023-05-01T07:23:09.938Z,3.42
2023-05-01T07:25:41.636Z,3.53
2023-05-01T07:28:11.608Z,3.47
2023-05-01T07:30:41.614Z,3.50
2023-05-01T07:33:12.221Z,3.40
2023-05-01T07:35:43.263Z,3.30
2023-05-01T07:38:16.246Z,3.30
2023-05-01T07:40:46.352Z,3.40
2023-05-01T07:43:16.601Z,3.15
2023-05-01T07:45:59.017Z,2.92
2023-05-01T07:48:30.501Z,3.05
2023-05-01T07:51:00.616Z,3.28
2023-05-01T07:53:33.315Z,3.20
2023-05-01T07:56:10.234Z,2.22
2023-05-01T07:58:41.689Z,3.13
2023-05-01T08:01:12.005Z,3.40
2023-05-01T08:03:42.325Z,3.70
2023-05-01T08:06:12.347Z,3.33
2023-05-01T08:08:44.911Z,3.55
2023-05-01T08:11:14.986Z,3.50
2023-05-01T08:13:44.932Z,2.95
2023-05-01T08:16:15.126Z,3.25
2023-05-01T08:18:45.129Z,2.83
2023-05-01T08:21:15.479Z,2.90
2023-05-01T08:23:48.011Z,2.83
2023-05-01T08:26:17.961Z,2.50
2023-05-01T08:28:47.989Z,2.50
2023-05-01T08:31:19.583Z,2.85
2023-05-01T08:33:49.659Z,2.53
2023-05-01T08:36:21.292Z,2.47
2023-05-01T08:38:54.296Z,2.30
2023-05-01T08:41:25.729Z,2.10
2023-05-01T08:43:56.092Z,2.17
2023-05-01T08:46:37.213Z,2.50
2023-05-01T08:49:09.461Z,2.30
2023-05-01T08:51:41.071Z,2.38
2023-05-01T08:54:14.461Z,2.40
2023-05-01T08:56:46.759Z,2.25
2023-05-01T08:59:17.750Z,2.50
2023-05-01T09:01:49.965Z,2.70
2023-05-01T09:04:20.903Z,2.00
2023-05-01T09:06:51.412Z,2.25
2023-05-01T09:09:23.970Z,2.28
2023-05-01T09:11:54.014Z,2.50
2023-05-01T09:14:24.103Z,2.10
2023-05-01T09:16:54.444Z,2.30
2023-05-01T09:19:24.618Z,2.25
2023-05-01T09:21:54.683Z,1.90
2023-05-01T09:24:28.370Z,1.90
2023-05-01T09:26:58.982Z,2.13
2023-05-01T09:29:41.897Z,2.08
2023-05-01T09:32:20.868Z,2.30
2023-05-01T09:34:52.702Z,2.40
2023-05-01T09:37:33.472Z,2.50
2023-05-01T09:40:12.231Z,2.17
2023-05-01T09:42:44.166Z,2.15
2023-05-01T09:45:16.921Z,2.72
2023-05-01T09:47:47.599Z,2.33
2023-05-01T09:50:34.917Z,2.20
2023-05-01T09:53:06.759Z,2.53
2023-05-01T09:55:39.393Z,2.75
2023-05-01T09:58:09.931Z,2.78
2023-05-01T10:00:52.071Z,3.03
2023-05-01T10:03:22.270Z,2.97
2023-05-01T10:05:52.310Z,3.08
2023-05-01T10:08:22.318Z,2.47
2023-05-01T10:11:08.332Z,3.42
2023-05-01T10:13:38.292Z,3.10
2023-05-01T10:16:10.728Z,2.78
2023-05-01T10:18:40.748Z,2.97
2023-05-01T10:21:10.969Z,2.72
2023-05-01T10:23:41.404Z,3.28
2023-05-01T10:26:17.911Z,3.00
2023-05-01T10:28:51.783Z,3.05
2023-05-01T10:31:22.112Z,2.55
2023-05-01T10:33:53.240Z,2.67
2023-05-01T10:36:28.751Z,3.17
2023-05-01T10:38:58.977Z,3.35
2023-05-01T10:42:14.197Z,3.22
2023-05-01T10:44:48.015Z,3.17
2023-05-01T10:47:48.989Z,3.40
2023-05-01T10:50:19.713Z,3.70
2023-05-01T10:53:20.541Z,3.20
2023-05-01T10:55:52.145Z,3.30
2023-05-01T10:59:04.681Z,3.33
2023-05-01T11:01:37.009Z,2.83
2023-05-01T11:04:08.521Z,3.83
2023-05-01T11:06:39.844Z,3.33
2023-05-01T11:09:41.378Z,3.63
2023-05-01T11:12:13.903Z,3.45
2023-05-01T11:15:09.788Z,2.92
2023-05-01T11:17:49.934Z,3.05
2023-05-01T11:20:52.201Z,4.43
2023-05-01T11:23:24.036Z,3.83
2023-05-01T11:26:04.990Z,3.05
2023-05-01T11:28:36.244Z,2.72
2023-05-01T11:31:08.990Z,3.33
2023-05-01T11:33:38.957Z,3.47
2023-05-01T11:36:09.432Z,3.60
2023-05-01T11:38:40.006Z,3.63
2023-05-01T11:41:10.559Z,3.45
2023-05-01T11:43:53.467Z,3.53
2023-05-01T11:46:31.371Z,3.72
2023-05-01T11:49:03.928Z,3.20
2023-05-01T11:51:34.794Z,2.90
2023-05-01T11:54:06.251Z,3.20
2023-05-01T11:56:38.424Z,3.47
2023-05-01T11:59:17.301Z,3.25
2023-05-01T12:01:51.221Z,3.65
2023-05-01T12:04:31.556Z,3.75
2023-05-01T12:07:02.818Z,3.42
2023-05-01T12:09:33.992Z,3.75
2023-05-01T12:12:04.444Z,3.45
2023-05-01T12:14:34.825Z,2.72
2023-05-01T12:17:09.989Z,4.72
2023-05-01T12:19:51.564Z,3.83
2023-05-01T12:22:22.009Z,3.80
2023-05-01T12:24:54.442Z,3.63
2023-05-01T12:27:24.517Z,3.63
2023-05-01T12:29:55.221Z,3.75
2023-05-01T12:32:35.207Z,3.45
2023-05-01T12:35:17.371Z,3.83
2023-05-01T12:37:47.369Z,3.17
2023-05-01T12:40:19.135Z,3.60
2023-05-01T12:42:59.542Z,3.10
2023-05-01T12:45:29.664Z,3.22
2023-05-01T12:48:02.489Z,3.40
2023-05-01T12:50:32.619Z,2.20
2023-05-01T12:53:07.320Z,3.00
2023-05-01T12:55:48.397Z,3.03
2023-05-01T12:58:20.855Z,3.17
2023-05-01T13:00:53.149Z,3.45
2023-05-01T13:03:29.635Z,3.00
2023-05-01T13:06:02.470Z,3.10
2023-05-01T13:08:34.399Z,3.08
2023-05-01T13:11:13.858Z,3.70
2023-05-01T13:13:45.775Z,3.17
2023-05-01T13:16:18.201Z,3.28
2023-05-01T13:18:53.804Z,3.40
2023-05-01T13:21:25.545Z,3.35
2023-05-01T13:23:57.688Z,2.83
2023-05-01T13:26:33.007Z,3.55
2023-05-01T13:29:03.943Z,3.20
2023-05-01T13:31:34.498Z,3.10
2023-05-01T13:34:08.556Z,3.42
2023-05-01T13:36:38.952Z,3.53
2023-05-01T13:39:09.098Z,3.13
2023-05-01T13:41:39.871Z,2.95
2023-05-01T13:44:10.111Z,3.60
2023-05-01T13:46:42.972Z,3.00
2023-05-01T13:49:16.818Z,3.20
2023-05-01T13:51:48.987Z,2.60
2023-05-01T13:54:20.815Z,3.20
2023-05-01T13:56:50.920Z,3.22
2023-05-01T13:59:20.985Z,3.25
2023-05-01T14:01:51.270Z,3.10
2023-05-01T14:04:24.114Z,3.22
2023-05-01T14:06:54.402Z,3.13
2023-05-01T14:09:24.445Z,2.90
2023-05-01T14:12:00.712Z,2.60
2023-05-01T14:14:30.854Z,3.05
2023-05-01T14:17:00.894Z,2.90
2023-05-01T14:19:33.553Z,2.67
2023-05-01T14:22:03.527Z,3.08
2023-05-01T14:24:34.153Z,2.60
2023-05-01T14:27:07.361Z,2.20
2023-05-01T14:29:37.348Z,2.53
2023-05-01T14:32:08.740Z,2.65
2023-05-01T14:34:45.523Z,2.58
2023-05-01T14:37:16.256Z,3.25
2023-05-01T14:39:46.221Z,3.42
2023-05-01T14:42:16.428Z,2.80
2023-05-01T14:44:46.431Z,2.80
2023-05-01T14:47:22.935Z,2.70
2023-05-01T14:49:56.942Z,3.03
2023-05-01T14:52:26.907Z,2.38
2023-05-01T14:54:57.038Z,3.50
2023-05-01T14:57:29.142Z,3.55
2023-05-01T14:59:59.282Z,3.35
2023-05-01T15:02:30.454Z,3.58
2023-05-01T15:05:03.699Z,3.40
2023-05-01T15:07:34.028Z,3.22
2023-05-01T15:10:04.009Z,3.70
2023-05-01T15:12:33.957Z,3.42
2023-05-01T15:15:04.108Z,3.22
2023-05-01T15:17:34.121Z,3.20
2023-05-01T15:20:08.106Z,3.05
2023-05-01T15:22:40.334Z,2.88
2023-05-01T15:25:12.811Z,2.90
2023-05-01T15:27:44.572Z,3.08
2023-05-01T15:30:17.716Z,3.20
2023-05-01T15:32:47.784Z,3.50
2023-05-01T15:35:21.676Z,2.90
2023-05-01T15:37:51.634Z,3.03
2023-05-01T15:40:21.871Z,3.55
2023-05-01T15:42:52.116Z,3.50
2023-05-01T15:45:23.036Z,3.28
2023-05-01T15:47:53.079Z,3.97
2023-05-01T15:50:27.140Z,3.40
2023-05-01T15:52:57.187Z,3.28
2023-05-01T15:55:27.225Z,3.35
2023-05-01T15:57:57.181Z,3.45
2023-05-01T16:00:27.531Z,3.35
2023-05-01T16:02:57.552Z,3.33
2023-05-01T16:05:30.227Z,3.38
2023-05-01T16:08:04.935Z,3.05
2023-05-01T16:10:37.245Z,3.53
2023-05-01T16:13:08.656Z,3.22
2023-05-01T16:15:40.205Z,3.25
2023-05-01T16:18:11.195Z,3.53
2023-05-01T16:20:46.424Z,3.20
2023-05-01T16:23:18.199Z,3.95
2023-05-01T16:25:48.672Z,3.75
2023-05-01T16:28:19.902Z,6.55
2023-05-01T16:30:50.592Z,3.90
2023-05-01T16:33:23.547Z,3.67
2023-05-01T16:35:57.548Z,3.60
2023-05-01T16:38:29.525Z,3.75
2023-05-01T16:40:59.491Z,4.10
2023-05-01T16:43:29.466Z,4.20
2023-05-01T16:46:01.657Z,3.90
2023-05-01T16:48:31.780Z,3.95
2023-05-01T16:51:07.512Z,3.75
2023-05-01T16:53:37.694Z,4.40
2023-05-01T16:56:10.309Z,3.92
2023-05-01T16:58:40.274Z,4.15
2023-05-01T17:01:10.263Z,4.20
2023-05-01T17:03:40.320Z,4.28
2023-05-01T17:06:12.850Z,5.00
2023-05-01T17:08:42.852Z,4.15
2023-05-01T17:11:14.628Z,4.15
2023-05-01T17:13:44.656Z,4.28
2023-05-01T17:16:14.670Z,6.32
2023-05-01T17:18:44.713Z,6.28
2023-05-01T17:21:17.425Z,4.70
2023-05-01T17:23:47.428Z,4.50
2023-05-01T17:26:17.576Z,4.03
2023-05-01T17:28:49.197Z,4.22
2023-05-01T17:31:21.868Z,4.90
2023-05-01T17:33:52.525Z,4.60
2023-05-01T17:36:25.122Z,4.07
2023-05-01T17:38:55.059Z,4.38
2023-05-01T17:41:25.306Z,4.10
2023-05-01T17:43:55.414Z,4.32
2023-05-01T17:46:25.590Z,4.43
2023-05-01T17:48:55.751Z,4.25
2023-05-01T17:51:28.650Z,4.40
2023-05-01T17:53:58.603Z,3.90
2023-05-01T17:56:28.632Z,4.95
2023-05-01T17:58:58.607Z,4.70
2023-05-01T18:01:28.985Z,4.07
2023-05-01T18:03:59.265Z,4.90
2023-05-01T18:06:32.097Z,4.75
2023-05-01T18:09:02.089Z,4.80
2023-05-01T18:11:32.052Z,4.35
2023-05-01T18:14:02.590Z,4.63
2023-05-01T18:16:32.652Z,4.35
2023-05-01T18:19:02.685Z,5.43
2023-05-01T18:21:35.309Z,5.40
2023-05-01T18:24:05.624Z,5.25
2023-05-01T18:26:36.373Z,5.88
2023-05-01T18:29:06.330Z,6.03
2023-05-01T18:31:38.353Z,6.60
2023-05-01T18:34:10.299Z,6.40
2023-05-01T18:36:42.848Z,6.75
2023-05-01T18:39:12.889Z,6.75
2023-05-01T18:41:42.927Z,6.78
2023-05-01T18:44:12.869Z,5.72
2023-05-01T18:46:43.798Z,5.32
2023-05-01T18:49:14.034Z,7.28
2023-05-01T18:51:48.009Z,7.15
2023-05-01T18:54:18.194Z,7.32
2023-05-01T18:56:48.171Z,6.85
2023-05-01T18:59:18.456Z,7.80
2023-05-01T19:01:50.296Z,7.40
2023-05-01T19:04:22.035Z,7.18
2023-05-01T19:06:54.830Z,6.88
2023-05-01T19:09:25.185Z,7.90
2023-05-01T19:11:55.142Z,8.18
2023-05-01T19:14:25.360Z,9.18
2023-05-01T19:16:55.347Z,9.07
2023-05-01T19:19:26.326Z,9.18
2023-05-01T19:21:59.112Z,8.90
2023-05-01T19:24:29.072Z,9.32
2023-05-01T19:26:59.088Z,8.50
2023-05-01T19:29:29.075Z,8.85
2023-05-01T19:32:00.407Z,10.07
2023-05-01T19:34:31.011Z,10.13
2023-05-01T19:37:03.943Z,8.88
2023-05-01T19:39:34.369Z,11.18
2023-05-01T19:42:04.596Z,10.00
2023-05-01T19:44:34.712Z,9.55
2023-05-01T19:47:04.823Z,9.85
2023-05-01T19:49:34.879Z,9.93
2023-05-01T19:52:08.021Z,10.02
2023-05-01T19:54:37.999Z,9.55
2023-05-01T19:57:08.061Z,9.63
2023-05-01T19:59:41.267Z,9.63
2023-05-01T20:02:11.354Z,8.63
2023-05-01T20:04:41.393Z,9.77
2023-05-01T20:07:14.623Z,10.82
2023-05-01T20:09:44.889Z,10.13
2023-05-01T20:12:14.932Z,9.10
2023-05-01T20:14:44.964Z,9.07
2023-05-01T20:17:14.928Z,9.95
2023-05-01T20:19:45.049Z,9.98
2023-05-01T20:22:17.829Z,9.95
2023-05-01T20:24:48.103Z,9.82
2023-05-01T20:27:18.522Z,8.90
2023-05-01T20:29:48.869Z,8.88
2023-05-01T20:32:20.228Z,8.57
2023-05-01T20:34:50.949Z,10.07
2023-05-01T20:37:23.760Z,9.93
2023-05-01T20:39:53.749Z,9.35
2023-05-01T20:42:23.926Z,8.82
2023-05-01T20:44:53.900Z,9.10
2023-05-01T20:47:24.367Z,9.30
2023-05-01T20:49:54.446Z,9.27
2023-05-01T20:52:27.881Z,10.23
2023-05-01T20:54:57.871Z,8.98
2023-05-01T20:57:27.855Z,10.43
2023-05-01T20:59:58.079Z,10.55
2023-05-01T21:02:28.323Z,10.02
2023-05-01T21:04:58.397Z,9.75
2023-05-01T21:07:32.427Z,9.82
2023-05-01T21:10:03.101Z,9.82
2023-05-01T21:12:33.092Z,9.63
2023-05-01T21:15:03.084Z,10.98
2023-05-01T21:17:35.638Z,10.40
2023-05-01T21:20:08.707Z,10.13
2023-05-01T21:22:45.782Z,10.40
2023-05-01T21:25:20.052Z,10.23
2023-05-01T21:27:50.140Z,9.90
2023-05-01T21:30:33.709Z,10.10
2023-05-01T21:33:03.986Z,9.57
2023-05-01T21:35:34.331Z,8.68
2023-05-01T21:38:07.308Z,9.70
2023-05-01T21:40:40.302Z,8.98
2023-05-01T21:43:11.938Z,9.32
2023-05-01T21:45:46.187Z,8.82
2023-05-01T21:48:18.635Z,8.65
2023-05-01T21:50:52.433Z,9.07
2023-05-01T21:53:25.087Z,9.20
2023-05-01T21:55:55.114Z,9.38
2023-05-01T21:58:25.177Z,8.88
2023-05-01T22:00:55.557Z,9.18
2023-05-01T22:03:25.708Z,9.80
2023-05-01T22:05:55.837Z,10.32
2023-05-01T22:08:31.199Z,10.27
2023-05-01T22:11:01.238Z,9.75
2023-05-01T22:13:33.657Z,10.65
2023-05-01T22:16:04.117Z,10.32
2023-05-01T22:18:34.176Z,10.25
2023-05-01T22:21:04.726Z,10.60
2023-05-01T22:23:37.277Z,11.60
2023-05-01T22:26:07.298Z,11.05
2023-05-01T22:28:37.603Z,12.18
2023-05-01T22:31:07.819Z,13.75
2023-05-01T22:33:37.806Z,14.90
2023-05-01T22:36:08.697Z,14.68
2023-05-01T22:38:41.461Z,13.82
2023-05-01T22:41:11.779Z,15.60
2023-05-01T22:43:41.899Z,14.45
2023-05-01T22:46:11.897Z,13.48
2023-05-01T22:48:41.889Z,14.00
2023-05-01T22:51:11.869Z,13.65
2023-05-01T22:53:44.677Z,14.50
2023-05-01T22:56:14.652Z,14.43
2023-05-01T22:58:44.592Z,13.68
2023-05-01T23:01:14.693Z,12.90
2023-05-01T23:03:44.748Z,14.13
2023-05-01T23:06:14.858Z,13.65
2023-05-01T23:08:47.488Z,13.77
2023-05-01T23:11:22.024Z,13.77
2023-05-01T23:13:53.413Z,14.35
2023-05-01T23:16:23.443Z,14.43
2023-05-01T23:18:53.635Z,13.20
2023-05-01T23:21:23.834Z,14.15
2023-05-01T23:23:56.469Z,14.10
2023-05-01T23:26:29.119Z,12.70
2023-05-01T23:29:00.186Z,11.48
2023-05-01T23:31:30.731Z,11.93
2023-05-01T23:34:01.398Z,12.13
2023-05-01T23:36:31.675Z,11.20
2023-05-01T23:39:04.238Z,10.32
2023-05-01T23:41:34.310Z,11.15
2023-05-01T23:44:04.599Z,9.43
2023-05-01T23:46:34.731Z,10.57
2023-05-01T23:49:05.150Z,10.48
2023-05-01T23:51:35.350Z,10.80
2023-05-01T23:54:07.929Z,10.07
2023-05-01T23:56:37.877Z,11.27
2023-05-01T23:59:08.269Z,11.40
